createdAt,value
2019-04-22T00:02:30.351Z,25.57
2019-04-22T00:05:11.482Z,26.02
2019-04-22T00:08:00.099Z,25.00
2019-04-22T00:10:35.807Z,25.30
2019-04-22T00:13:00.051Z,25.97
2019-04-22T00:15:20.177Z,23.12
2019-04-22T00:18:15.794Z,25.95
2019-04-22T00:20:29.955Z,26.17
2019-04-22T00:23:00.126Z,25.52
2019-04-22T00:25:39.235Z,23.22
2019-04-22T00:28:02.413Z,26.07
2019-04-22T00:30:29.857Z,25.12
2019-04-22T00:33:17.998Z,24.92
2019-04-22T00:35:49.361Z,24.65
2019-04-22T00:41:00.831Z,25.25
2019-04-22T00:43:21.216Z,24.70
2019-04-22T00:45:54.026Z,24.20
2019-04-22T00:51:04.239Z,25.68
2019-04-22T00:56:07.404Z,23.12
2019-04-22T00:58:39.717Z,22.62
2019-04-22T01:01:08.056Z,23.80
2019-04-22T01:03:46.230Z,22.10
2019-04-22T01:06:07.749Z,23.92
2019-04-22T01:08:40.282Z,21.55
2019-04-22T01:11:14.766Z,21.82
2019-04-22T01:13:41.011Z,21.75
2019-04-22T01:16:15.317Z,20.85
2019-04-22T01:18:37.328Z,22.32
2019-04-22T01:21:21.510Z,20.20
2019-04-22T01:23:34.491Z,20.40
2019-04-22T01:26:06.427Z,21.42
2019-04-22T01:28:27.939Z,20.52
2019-04-22T01:30:53.324Z,21.00
2019-04-22T01:33:28.074Z,20.00
2019-04-22T01:36:09.309Z,18.92
2019-04-22T01:38:36.627Z,18.02
2019-04-22T01:41:16.490Z,17.42
2019-04-22T01:43:53.737Z,17.50
2019-04-22T01:46:16.614Z,17.60
2019-04-22T01:48:47.210Z,17.45
2019-04-22T01:51:12.259Z,17.70
2019-04-22T01:53:51.748Z,18.20
2019-04-22T01:56:20.910Z,17.25
2019-04-22T01:58:38.098Z,17.82
2019-04-22T02:01:22.281Z,18.10
2019-04-22T02:06:23.444Z,15.72
2019-04-22T02:08:52.813Z,17.02
2019-04-22T02:11:26.547Z,17.73
2019-04-22T02:13:49.813Z,16.05
2019-04-22T02:16:21.130Z,17.17
2019-04-22T02:18:56.403Z,16.35
2019-04-22T02:21:22.906Z,16.10
2019-04-22T02:26:27.232Z,15.63
2019-04-22T02:29:06.554Z,16.15
2019-04-22T02:41:41.512Z,14.25
2019-04-22T02:44:08.216Z,14.05
2019-04-22T02:46:44.951Z,13.25
2019-04-22T02:51:28.265Z,13.15
2019-04-22T02:59:12.255Z,12.58
2019-04-22T03:01:36.035Z,11.73
2019-04-22T03:04:20.476Z,11.55
2019-04-22T03:06:36.668Z,11.60
2019-04-22T03:14:04.645Z,11.05
2019-04-22T03:16:41.217Z,11.08
2019-04-22T03:19:17.745Z,10.93
2019-04-22T03:21:54.358Z,10.28
2019-04-22T03:29:33.476Z,11.15
2019-04-22T03:32:39.699Z,10.20
2019-04-22T03:39:51.300Z,9.78
2019-04-22T03:44:38.413Z,9.98
2019-04-22T03:49:58.588Z,9.63
2019-04-22T03:54:40.342Z,8.63
2019-04-22T03:57:25.036Z,9.50
2019-04-22T03:59:43.983Z,8.90
2019-04-22T04:09:39.134Z,8.45
2019-04-22T04:12:25.879Z,9.05
2019-04-22T04:14:46.422Z,9.05
2019-04-22T04:17:08.961Z,9.00
2019-04-22T04:20:05.947Z,9.35
2019-04-22T04:22:27.150Z,8.35
2019-04-22T04:27:43.563Z,9.05
2019-04-22T04:29:54.482Z,8.23
2019-04-22T04:32:26.860Z,9.58
2019-04-22T04:37:38.913Z,8.03
2019-04-22T04:39:54.538Z,9.20
2019-04-22T04:47:25.871Z,10.75
2019-04-22T04:49:52.351Z,8.75
2019-04-22T04:52:33.025Z,8.03
2019-04-22T04:55:12.342Z,8.50
2019-04-22T04:57:23.988Z,8.93
2019-04-22T05:07:27.745Z,9.95
2019-04-22T05:09:53.221Z,9.73
2019-04-22T05:12:33.550Z,10.68
2019-04-22T05:14:54.965Z,11.53
2019-04-22T05:19:47.664Z,10.63
2019-04-22T05:22:21.418Z,10.72
2019-04-22T05:24:53.391Z,10.32
2019-04-22T05:32:22.781Z,10.70
2019-04-22T05:34:48.569Z,10.88
2019-04-22T05:37:22.835Z,10.20
2019-04-22T05:39:49.674Z,10.08
2019-04-22T05:42:21.754Z,11.22
2019-04-22T05:45:10.285Z,10.55
2019-04-22T05:47:19.615Z,10.78
2019-04-22T05:49:48.087Z,10.70
2019-04-22T05:52:20.380Z,10.05
2019-04-22T05:54:55.339Z,10.55
2019-04-22T05:57:24.786Z,10.38
2019-04-22T05:59:59.520Z,9.30
2019-04-22T06:02:32.475Z,10.20
2019-04-22T06:04:58.297Z,10.08
2019-04-22T06:07:26.420Z,9.88
2019-04-22T06:10:02.347Z,9.68
2019-04-22T06:12:20.868Z,10.38
2019-04-22T06:14:58.145Z,10.20
2019-04-22T06:17:35.679Z,10.60
2019-04-22T06:19:58.655Z,9.80
2019-04-22T06:22:37.540Z,10.60
2019-04-22T06:25:04.269Z,9.73
2019-04-22T06:29:57.113Z,9.70
2019-04-22T06:35:09.508Z,10.15
2019-04-22T06:37:36.668Z,9.58
2019-04-22T06:40:06.768Z,9.13
2019-04-22T06:42:36.257Z,9.05
2019-04-22T06:45:07.266Z,9.00
2019-04-22T06:47:51.189Z,8.53
2019-04-22T06:50:07.658Z,8.70
2019-04-22T06:52:28.146Z,8.55
2019-04-22T06:55:13.180Z,8.78
2019-04-22T06:57:41.434Z,8.28
2019-04-22T07:00:14.363Z,8.15
2019-04-22T07:02:47.168Z,8.90
2019-04-22T07:05:08.187Z,9.73
2019-04-22T07:07:41.754Z,8.65
2019-04-22T07:10:20.133Z,7.78
2019-04-22T07:12:34.634Z,8.03
2019-04-22T07:15:13.723Z,8.28
2019-04-22T07:17:42.415Z,8.55
2019-04-22T07:20:10.473Z,8.40
2019-04-22T07:22:41.916Z,8.95
2019-04-22T07:25:10.262Z,8.90
2019-04-22T07:27:41.828Z,8.85
2019-04-22T07:30:15.173Z,7.53
2019-04-22T07:35:19.523Z,8.25
2019-04-22T07:38:00.714Z,8.23
2019-04-22T07:40:25.171Z,8.25
2019-04-22T07:42:45.432Z,6.95
2019-04-22T07:45:16.566Z,6.80
2019-04-22T07:50:32.204Z,7.20
2019-04-22T07:52:44.950Z,6.83
2019-04-22T07:55:13.423Z,7.30
2019-04-22T07:57:51.989Z,6.58
2019-04-22T08:02:51.715Z,6.75
2019-04-22T08:05:21.675Z,6.60
2019-04-22T08:07:52.047Z,7.12
2019-04-22T08:12:55.451Z,6.97
2019-04-22T08:15:21.272Z,6.05
2019-04-22T08:20:25.156Z,6.30
2019-04-22T08:23:00.916Z,6.75
2019-04-22T08:25:26.508Z,6.20
2019-04-22T08:28:01.647Z,5.67
2019-04-22T08:30:28.333Z,6.80
2019-04-22T08:32:53.229Z,6.87
2019-04-22T08:40:34.712Z,6.70
2019-04-22T08:43:09.062Z,6.35
2019-04-22T08:45:36.603Z,6.33
2019-04-22T08:47:54.757Z,6.20
2019-04-22T08:50:28.396Z,5.95
2019-04-22T08:53:06.205Z,5.85
2019-04-22T08:55:32.918Z,6.45
2019-04-22T08:58:16.762Z,5.65
2019-04-22T09:00:37.502Z,5.95
2019-04-22T09:03:04.415Z,5.75
2019-04-22T09:06:02.426Z,5.53
2019-04-22T09:08:09.422Z,5.62
2019-04-22T09:10:40.011Z,5.92
2019-04-22T09:13:05.801Z,5.83
2019-04-22T09:15:34.314Z,5.55
2019-04-22T09:18:12.767Z,5.70
2019-04-22T09:20:40.436Z,5.70
2019-04-22T09:23:07.664Z,4.80
2019-04-22T09:28:07.339Z,5.17
2019-04-22T09:30:40.406Z,5.37
2019-04-22T09:33:17.080Z,4.85
2019-04-22T09:35:45.058Z,5.00
2019-04-22T09:40:43.521Z,4.75
2019-04-22T09:43:13.356Z,5.17
2019-04-22T09:45:43.603Z,5.03
2019-04-22T09:48:16.621Z,5.12
2019-04-22T09:50:47.981Z,4.83
2019-04-22T09:53:16.111Z,4.95
2019-04-22T09:55:47.139Z,4.60
2019-04-22T09:58:16.177Z,4.72
2019-04-22T10:01:30.745Z,4.95
2019-04-22T10:03:49.737Z,4.92
2019-04-22T10:06:22.562Z,4.95
2019-04-22T10:08:54.220Z,4.45
2019-04-22T10:11:25.122Z,5.15
2019-04-22T10:13:52.323Z,4.85
2019-04-22T10:16:17.331Z,4.83
2019-04-22T10:18:46.117Z,5.12
2019-04-22T10:21:27.219Z,4.60
2019-04-22T10:23:44.305Z,4.20
2019-04-22T10:26:26.854Z,4.60
2019-04-22T10:28:53.261Z,4.87
2019-04-22T10:31:29.441Z,4.53
2019-04-22T10:33:42.181Z,5.15
2019-04-22T10:35:55.423Z,4.30
2019-04-22T10:38:24.195Z,4.20
2019-04-22T10:40:54.451Z,4.67
2019-04-22T10:43:23.349Z,4.62
2019-04-22T10:45:52.331Z,4.33
2019-04-22T10:48:22.036Z,4.67
2019-04-22T10:50:50.911Z,3.85
2019-04-22T10:53:19.894Z,4.30
2019-04-22T10:55:49.796Z,4.33
2019-04-22T10:58:20.719Z,4.35
2019-04-22T11:00:50.393Z,4.15
2019-04-22T11:03:20.407Z,4.72
2019-04-22T11:05:50.546Z,4.95
2019-04-22T11:08:28.566Z,5.12
2019-04-22T11:11:04.727Z,4.40
2019-04-22T11:13:22.098Z,4.67
2019-04-22T11:15:51.040Z,4.60
2019-04-22T11:18:19.977Z,5.10
2019-04-22T11:20:49.530Z,4.35
2019-04-22T11:23:18.726Z,4.55
2019-04-22T11:25:47.993Z,3.92
2019-04-22T11:28:18.005Z,4.20
2019-04-22T11:30:48.131Z,4.67
2019-04-22T11:33:18.299Z,4.92
2019-04-22T11:35:47.947Z,4.80
2019-04-22T11:38:17.279Z,4.37
2019-04-22T11:40:51.644Z,4.83
2019-04-22T11:43:16.696Z,4.58
2019-04-22T11:45:45.395Z,4.62
2019-04-22T11:48:15.488Z,4.42
2019-04-22T11:50:46.000Z,4.67
2019-04-22T11:53:16.570Z,4.85
2019-04-22T11:55:46.774Z,4.92
2019-04-22T11:58:16.937Z,4.67
2019-04-22T12:00:46.144Z,4.65
2019-04-22T12:03:14.953Z,4.33
2019-04-22T12:05:44.063Z,4.35
2019-04-22T12:08:13.266Z,4.30
2019-04-22T12:10:49.200Z,4.12
2019-04-22T12:13:12.992Z,3.37
2019-04-22T12:15:42.782Z,3.83
2019-04-22T12:18:13.019Z,4.40
2019-04-22T12:20:43.370Z,3.75
2019-04-22T12:23:12.728Z,4.40
2019-04-22T12:25:48.683Z,4.10
2019-04-22T12:28:13.000Z,3.77
2019-04-22T12:30:41.948Z,3.98
2019-04-22T12:33:12.976Z,3.80
2019-04-22T12:35:42.214Z,3.80
2019-04-22T12:38:14.354Z,3.62
2019-04-22T12:40:49.358Z,3.58
2019-04-22T12:43:14.313Z,3.50
2019-04-22T12:45:42.800Z,3.45
2019-04-22T12:48:12.818Z,3.33
2019-04-22T12:50:45.652Z,3.40
2019-04-22T12:53:16.706Z,3.35
2019-04-22T12:55:43.924Z,3.67
2019-04-22T12:58:13.878Z,3.50
2019-04-22T13:00:45.228Z,3.60
2019-04-22T13:03:14.173Z,3.50
2019-04-22T13:05:43.137Z,4.10
2019-04-22T13:08:13.754Z,4.40
2019-04-22T13:10:53.294Z,3.30
2019-04-22T13:13:13.311Z,3.77
2019-04-22T13:15:42.178Z,3.35
2019-04-22T13:18:19.183Z,3.70
2019-04-22T13:20:42.174Z,3.37
2019-04-22T13:23:11.650Z,3.20
2019-04-22T13:25:40.951Z,3.62
2019-04-22T13:28:11.238Z,2.87
2019-04-22T13:30:40.888Z,3.37
2019-04-22T13:33:10.763Z,3.12
2019-04-22T13:35:39.737Z,3.02
2019-04-22T13:38:09.121Z,2.45
2019-04-22T13:40:39.105Z,2.25
2019-04-22T13:43:09.079Z,2.30
2019-04-22T13:45:38.569Z,2.20
2019-04-22T13:48:24.052Z,2.27
2019-04-22T13:51:03.449Z,2.47
2019-04-22T13:53:46.177Z,2.52
2019-04-22T13:56:01.732Z,2.58
2019-04-22T13:58:23.350Z,3.02
2019-04-22T14:00:40.709Z,2.33
2019-04-22T14:03:39.081Z,2.17
2019-04-22T14:06:09.079Z,2.00
2019-04-22T14:08:37.958Z,2.08
2019-04-22T14:11:18.284Z,1.98
2019-04-22T14:13:39.626Z,1.87
2019-04-22T14:16:09.026Z,2.50
2019-04-22T14:18:39.045Z,2.12
2019-04-22T14:21:09.125Z,2.60
2019-04-22T14:23:38.523Z,2.20
2019-04-22T14:26:07.347Z,2.42
2019-04-22T14:28:37.466Z,2.02
2019-04-22T14:31:06.842Z,1.92
2019-04-22T14:33:36.264Z,2.15
2019-04-22T14:36:05.387Z,2.15
2019-04-22T14:38:34.711Z,2.00
2019-04-22T14:41:05.757Z,1.70
2019-04-22T14:44:24.478Z,1.80
2019-04-22T14:46:35.000Z,1.32
2019-04-22T14:49:00.004Z,1.50
2019-04-22T14:51:25.521Z,1.60
2019-04-22T14:53:56.689Z,2.00
2019-04-22T14:56:08.502Z,1.45
2019-04-22T14:58:37.564Z,1.92
2019-04-22T15:01:06.899Z,1.70
2019-04-22T15:03:39.939Z,2.10
2019-04-22T15:06:06.561Z,1.70
2019-04-22T15:08:35.417Z,2.10
2019-04-22T15:11:06.223Z,1.42
2019-04-22T15:13:35.635Z,1.67
2019-04-22T15:16:27.751Z,1.50
2019-04-22T15:19:11.619Z,1.72
2019-04-22T15:21:40.995Z,1.42
2019-04-22T15:24:27.343Z,1.52
2019-04-22T15:26:58.597Z,1.70
2019-04-22T15:29:29.391Z,1.90
2019-04-22T15:31:59.730Z,1.50
2019-04-22T15:34:30.386Z,1.80
2019-04-22T15:37:00.092Z,1.30
2019-04-22T15:39:29.252Z,1.80
2019-04-22T15:42:11.387Z,1.32
2019-04-22T15:44:30.248Z,2.00
2019-04-22T15:47:00.717Z,1.98
2019-04-22T15:49:29.842Z,2.83
2019-04-22T15:52:00.752Z,2.75
2019-04-22T15:54:29.850Z,1.92
2019-04-22T15:56:59.047Z,2.27
2019-04-22T15:59:46.571Z,1.98
2019-04-22T16:02:00.278Z,1.77
2019-04-22T16:04:30.720Z,1.57
2019-04-22T16:07:01.069Z,2.22
2019-04-22T16:09:31.266Z,1.62
2019-04-22T16:12:12.559Z,1.70
2019-04-22T16:14:37.193Z,1.70
2019-04-22T16:17:01.393Z,1.90
2019-04-22T16:19:30.948Z,2.00
2019-04-22T16:22:05.543Z,2.05
2019-04-22T16:24:50.223Z,2.12
2019-04-22T16:27:22.849Z,2.60
2019-04-22T16:29:51.767Z,1.90
2019-04-22T16:32:21.226Z,2.10
2019-04-22T16:34:54.537Z,4.25
2019-04-22T16:37:24.953Z,5.30
2019-04-22T16:39:54.749Z,4.35
2019-04-22T16:42:31.182Z,5.12
2019-04-22T16:44:55.463Z,4.05
2019-04-22T16:47:25.419Z,3.27
2019-04-22T16:49:55.321Z,3.10
2019-04-22T16:52:25.841Z,3.30
2019-04-22T16:54:55.018Z,2.70
2019-04-22T16:57:24.125Z,2.95
2019-04-22T16:59:53.168Z,3.10
2019-04-22T17:02:43.420Z,3.62
2019-04-22T17:05:29.743Z,3.12
2019-04-22T17:08:00.425Z,3.60
2019-04-22T17:10:29.698Z,3.10
2019-04-22T17:13:05.961Z,2.60
2019-04-22T17:15:33.402Z,4.00
2019-04-22T17:18:03.234Z,2.85
2019-04-22T17:20:38.220Z,2.65
2019-04-22T17:23:07.452Z,3.12
2019-04-22T17:25:36.404Z,2.92
2019-04-22T17:28:05.683Z,2.72
2019-04-22T17:30:35.896Z,2.83
2019-04-22T17:33:05.246Z,2.70
2019-04-22T17:35:34.296Z,2.65
2019-04-22T17:38:15.352Z,2.92
2019-04-22T17:40:52.287Z,3.00
2019-04-22T17:43:36.199Z,3.02
2019-04-22T17:46:13.703Z,4.45
2019-04-22T17:49:04.354Z,3.90
2019-04-22T17:51:55.170Z,3.95
2019-04-22T17:54:12.071Z,3.92
2019-04-22T17:56:37.303Z,4.50
2019-04-22T17:59:08.242Z,3.35
2019-04-22T18:01:40.296Z,3.20
2019-04-22T18:03:53.029Z,3.40
2019-04-22T18:06:46.955Z,3.30
2019-04-22T18:09:04.959Z,3.37
2019-04-22T18:11:56.077Z,3.60
2019-04-22T18:14:29.924Z,4.05
2019-04-22T18:16:41.294Z,4.03
2019-04-22T18:19:16.651Z,4.22
2019-04-22T18:21:41.222Z,3.75
2019-04-22T18:24:06.869Z,3.40
2019-04-22T18:26:49.725Z,3.92
2019-04-22T18:29:19.373Z,3.20
2019-04-22T18:31:34.282Z,3.10
2019-04-22T18:34:10.134Z,3.40
2019-04-22T18:36:40.426Z,3.00
2019-04-22T18:39:22.497Z,2.65
2019-04-22T18:41:48.186Z,3.40
2019-04-22T18:44:25.115Z,3.02
2019-04-22T18:46:52.408Z,2.80
2019-04-22T18:49:26.886Z,3.85
2019-04-22T18:52:14.735Z,2.77
2019-04-22T18:54:55.362Z,3.17
2019-04-22T18:57:22.182Z,3.05
2019-04-22T18:59:37.988Z,3.27
2019-04-22T19:02:07.817Z,3.25
2019-04-22T19:04:47.297Z,3.25
2019-04-22T19:07:33.184Z,2.75
2019-04-22T19:10:04.890Z,3.20
2019-04-22T19:12:35.503Z,2.77
2019-04-22T19:15:22.673Z,2.83
2019-04-22T19:17:44.315Z,3.02
2019-04-22T19:22:36.044Z,3.17
2019-04-22T19:24:58.022Z,3.02
2019-04-22T19:27:31.225Z,2.87
2019-04-22T19:30:03.994Z,3.00
2019-04-22T19:32:35.141Z,3.05
2019-04-22T19:34:57.377Z,3.20
2019-04-22T19:37:28.471Z,2.90
2019-04-22T19:40:10.508Z,3.42
2019-04-22T19:42:49.523Z,3.62
2019-04-22T19:45:08.607Z,3.02
2019-04-22T19:47:56.545Z,3.10
2019-04-22T19:50:15.053Z,3.42
2019-04-22T19:52:40.345Z,3.60
2019-04-22T19:55:12.586Z,2.90
2019-04-22T19:57:41.328Z,3.40
2019-04-22T20:00:18.375Z,2.90
2019-04-22T20:03:03.683Z,3.10
2019-04-22T20:05:47.979Z,2.92
2019-04-22T20:08:21.334Z,3.15
2019-04-22T20:10:51.252Z,3.35
2019-04-22T20:13:24.248Z,3.00
2019-04-22T20:15:43.334Z,2.77
2019-04-22T20:20:58.489Z,2.42
2019-04-22T20:23:18.204Z,2.67
2019-04-22T20:25:48.373Z,2.58
2019-04-22T20:28:25.660Z,2.37
2019-04-22T20:30:59.600Z,2.15
2019-04-22T20:33:29.126Z,2.75
2019-04-22T20:36:01.493Z,2.40
2019-04-22T20:38:26.228Z,2.05
2019-04-22T20:40:55.183Z,2.00
2019-04-22T20:43:38.925Z,2.45
2019-04-22T20:46:00.605Z,2.00
2019-04-22T20:48:28.586Z,2.30
2019-04-22T20:50:59.223Z,2.00
2019-04-22T20:53:36.426Z,2.47
2019-04-22T20:56:00.556Z,1.87
2019-04-22T20:58:33.068Z,2.12
2019-04-22T21:00:56.871Z,2.00
2019-04-22T21:03:23.773Z,2.47
2019-04-22T21:05:55.883Z,1.90
2019-04-22T21:08:36.592Z,1.82
2019-04-22T21:10:57.918Z,1.72
2019-04-22T21:13:28.163Z,1.98
2019-04-22T21:16:10.546Z,2.40
2019-04-22T21:18:30.699Z,1.95
2019-04-22T21:21:07.201Z,2.10
2019-04-22T21:23:32.879Z,2.27
2019-04-22T21:26:11.205Z,1.62
2019-04-22T21:28:38.399Z,2.40
2019-04-22T21:31:14.835Z,1.75
2019-04-22T21:33:40.811Z,2.08
2019-04-22T21:36:30.186Z,2.27
2019-04-22T21:38:42.157Z,2.42
2019-04-22T21:41:10.041Z,2.15
2019-04-22T21:43:42.176Z,2.47
2019-04-22T21:46:29.206Z,2.20
2019-04-22T21:48:46.474Z,2.00
2019-04-22T21:51:21.290Z,2.15
2019-04-22T21:53:52.193Z,2.10
2019-04-22T21:59:00.228Z,1.98
2019-04-22T22:01:44.725Z,1.98
2019-04-22T22:04:07.953Z,2.30
2019-04-22T22:06:31.145Z,2.95
2019-04-22T22:09:08.703Z,1.95
2019-04-22T22:11:38.672Z,2.25
2019-04-22T22:14:07.820Z,1.90
2019-04-22T22:16:34.927Z,2.17
2019-04-22T22:19:11.698Z,2.10
2019-04-22T22:21:47.098Z,2.25
2019-04-22T22:24:18.144Z,1.82
2019-04-22T22:26:45.066Z,2.20
2019-04-22T22:29:18.427Z,2.10
2019-04-22T22:31:47.123Z,1.77
2019-04-22T22:34:19.467Z,1.95
2019-04-22T22:36:40.395Z,2.42
2019-04-22T22:39:08.685Z,1.90
2019-04-22T22:41:25.978Z,2.25
2019-04-22T22:44:03.210Z,2.20
2019-04-22T22:46:34.182Z,2.65
2019-04-22T22:49:21.860Z,2.15
2019-04-22T22:54:21.444Z,1.87
2019-04-22T22:56:57.598Z,2.27
2019-04-22T22:59:24.056Z,2.20
2019-04-22T23:01:52.693Z,2.00
2019-04-22T23:04:26.381Z,2.10
2019-04-22T23:06:56.205Z,2.50
2019-04-22T23:09:22.612Z,2.33
2019-04-22T23:12:13.257Z,1.87
2019-04-22T23:14:20.372Z,2.50
2019-04-22T23:16:44.958Z,2.37
2019-04-22T23:19:04.462Z,2.30
2019-04-22T23:21:39.850Z,2.37
2019-04-22T23:24:28.265Z,2.15
2019-04-22T23:27:03.090Z,2.55
2019-04-22T23:29:43.047Z,1.85
2019-04-22T23:32:18.537Z,2.42
2019-04-22T23:34:55.857Z,2.40
2019-04-22T23:37:25.206Z,3.27
2019-04-22T23:40:13.097Z,2.20
2019-04-22T23:42:33.418Z,2.50
2019-04-22T23:45:07.259Z,2.58
2019-04-22T23:47:29.289Z,2.42
2019-04-22T23:50:08.894Z,2.67
2019-04-22T23:52:58.842Z,2.87
2019-04-22T23:55:29.804Z,2.52
2019-04-22T23:58:21.057Z,2.30
